createdAt,value
2019-05-13T00:00:44.593Z,4.43
2019-05-13T00:03:13.750Z,4.20
2019-05-13T00:05:44.574Z,4.10
2019-05-13T00:08:14.002Z,4.73
2019-05-13T00:10:43.765Z,4.10
2019-05-13T00:13:14.463Z,4.40
2019-05-13T00:15:44.275Z,4.33
2019-05-13T00:18:14.381Z,4.30
2019-05-13T00:23:59.713Z,4.57
2019-05-13T00:26:28.448Z,4.97
2019-05-13T00:28:57.192Z,4.90
2019-05-13T00:31:25.907Z,5.10
2019-05-13T00:33:54.627Z,5.00
2019-05-13T00:36:24.305Z,4.73
2019-05-13T00:38:53.524Z,4.87
2019-05-13T00:41:24.415Z,4.77
2019-05-13T00:43:53.257Z,4.97
2019-05-13T00:46:23.618Z,5.37
2019-05-13T00:48:54.067Z,5.67
2019-05-13T00:51:24.380Z,5.53
2019-05-13T00:56:57.392Z,5.77
2019-05-13T00:59:26.136Z,5.70
2019-05-13T01:01:54.855Z,5.60
2019-05-13T01:04:23.428Z,5.73
2019-05-13T01:06:53.747Z,6.43
2019-05-13T01:21:54.154Z,6.80
2019-05-13T01:24:24.412Z,6.20
2019-05-13T01:26:54.170Z,7.20
2019-05-13T01:29:23.775Z,6.87
2019-05-13T01:31:53.830Z,6.83
2019-05-13T01:34:23.538Z,7.10
2019-05-13T01:36:53.579Z,7.17
2019-05-13T01:42:50.503Z,7.10
2019-05-13T01:45:19.385Z,6.90
2019-05-13T01:47:48.048Z,7.40
2019-05-13T01:50:16.685Z,7.93
2019-05-13T01:52:45.485Z,7.60
2019-05-13T01:55:14.690Z,7.93
2019-05-13T01:57:44.278Z,7.20
2019-05-13T02:00:14.297Z,7.17
2019-05-13T02:02:44.526Z,8.37
2019-05-13T02:05:14.187Z,7.00
2019-05-13T02:07:56.766Z,7.87
2019-05-13T02:10:15.330Z,8.57
2019-05-13T02:12:44.581Z,7.83
2019-05-13T02:15:14.705Z,8.67
2019-05-13T02:17:44.663Z,8.27
2019-05-13T02:20:14.810Z,8.90
2019-05-13T02:22:44.721Z,8.93
2019-05-13T02:25:13.877Z,8.53
2019-05-13T02:27:43.915Z,8.60
2019-05-13T02:30:16.112Z,8.83
2019-05-13T02:32:43.536Z,9.17
2019-05-13T02:35:13.908Z,9.07
2019-05-13T02:37:43.822Z,9.50
2019-05-13T02:40:53.013Z,9.83
2019-05-13T02:46:26.548Z,9.50
2019-05-13T02:48:55.327Z,8.33
2019-05-13T02:51:24.235Z,8.60
2019-05-13T02:53:53.026Z,8.67
2019-05-13T03:00:05.884Z,8.70
2019-05-13T03:02:34.685Z,9.50
2019-05-13T03:05:04.281Z,9.30
2019-05-13T03:07:33.461Z,9.57
2019-05-13T03:16:51.777Z,8.90
2019-05-13T03:19:22.398Z,9.33
2019-05-13T03:21:52.458Z,10.43
2019-05-13T03:24:22.748Z,9.07
2019-05-13T03:26:53.223Z,8.90
2019-05-13T03:29:22.245Z,9.27
2019-05-13T03:31:56.892Z,9.17
2019-05-13T03:34:27.267Z,9.40
2019-05-13T03:36:58.170Z,8.50
2019-05-13T03:39:27.917Z,9.07
2019-05-13T03:41:58.367Z,8.80
2019-05-13T03:44:32.515Z,9.33
2019-05-13T03:47:03.886Z,8.50
2019-05-13T03:49:42.218Z,9.07
2019-05-13T03:52:13.272Z,8.43
2019-05-13T03:54:43.365Z,8.93
2019-05-13T03:57:12.583Z,8.53
2019-05-13T03:59:43.649Z,9.00
2019-05-13T04:02:12.978Z,8.47
2019-05-13T04:04:42.438Z,8.87
2019-05-13T04:07:13.003Z,8.50
2019-05-13T04:09:42.695Z,9.10
2019-05-13T04:12:13.480Z,9.50
2019-05-13T04:14:42.619Z,8.53
2019-05-13T04:17:12.663Z,7.60
2019-05-13T04:19:42.393Z,8.87
2019-05-13T04:22:12.996Z,8.43
2019-05-13T04:24:42.837Z,8.50
2019-05-13T04:27:13.183Z,8.23
2019-05-13T04:29:43.390Z,7.60
2019-05-13T04:32:12.912Z,7.87
2019-05-13T04:34:42.525Z,9.37
2019-05-13T04:37:13.223Z,8.67
2019-05-13T04:39:51.135Z,8.47
2019-05-13T04:42:12.642Z,9.07
2019-05-13T04:44:42.747Z,8.67
2019-05-13T04:47:12.718Z,7.77
2019-05-13T04:49:42.806Z,7.73
2019-05-13T04:52:13.354Z,8.50
2019-05-13T04:54:43.734Z,8.20
2019-05-13T04:57:12.986Z,8.07
2019-05-13T04:59:44.493Z,7.97
2019-05-13T05:02:22.314Z,7.80
2019-05-13T05:04:57.051Z,7.70
2019-05-13T05:07:44.921Z,7.57
2019-05-13T05:10:29.074Z,8.30
2019-05-13T05:13:24.690Z,7.63
2019-05-13T05:16:21.827Z,8.27
2019-05-13T05:19:09.058Z,7.47
2019-05-13T05:21:55.713Z,8.30
2019-05-13T05:24:54.745Z,7.07
2019-05-13T05:27:58.371Z,8.43
2019-05-13T05:31:02.294Z,7.70
2019-05-13T05:36:45.022Z,8.07
2019-05-13T05:39:27.269Z,6.60
2019-05-13T05:41:58.814Z,6.53
2019-05-13T05:44:32.415Z,6.90
2019-05-13T05:47:03.192Z,6.63
2019-05-13T05:49:32.367Z,6.00
2019-05-13T05:52:06.641Z,6.30
2019-05-13T05:54:39.316Z,6.17
2019-05-13T05:57:12.184Z,7.73
2019-05-13T05:59:42.622Z,7.20
2019-05-13T06:02:12.138Z,6.50
2019-05-13T06:04:43.306Z,6.57
2019-05-13T06:07:13.770Z,6.30
2019-05-13T06:09:42.646Z,6.83
2019-05-13T06:12:12.538Z,6.00
2019-05-13T06:14:42.401Z,6.87
2019-05-13T06:17:11.600Z,6.50
2019-05-13T06:19:41.850Z,6.20
2019-05-13T06:22:12.344Z,6.07
2019-05-13T06:24:42.302Z,6.03
2019-05-13T06:27:11.851Z,5.70
2019-05-13T06:29:42.284Z,5.67
2019-05-13T06:32:19.212Z,6.07
2019-05-13T06:34:42.070Z,5.70
2019-05-13T06:37:11.551Z,5.63
2019-05-13T06:39:41.973Z,5.20
2019-05-13T06:42:11.627Z,5.23
2019-05-13T06:44:42.083Z,5.13
2019-05-13T06:47:11.413Z,5.17
2019-05-13T06:49:42.618Z,4.70
2019-05-13T06:52:11.982Z,4.47
2019-05-13T06:54:41.875Z,5.90
2019-05-13T06:57:13.475Z,4.67
2019-05-13T06:59:42.022Z,4.50
2019-05-13T07:02:12.405Z,4.97
2019-05-13T07:04:41.598Z,5.23
2019-05-13T07:07:16.102Z,4.27
2019-05-13T07:09:42.691Z,4.53
2019-05-13T07:12:11.489Z,4.97
2019-05-13T07:14:41.341Z,4.77
2019-05-13T07:17:12.387Z,4.60
2019-05-13T07:19:41.480Z,4.33
2019-05-13T07:22:11.550Z,5.00
2019-05-13T07:24:41.483Z,4.63
2019-05-13T07:27:12.192Z,4.40
2019-05-13T07:29:42.368Z,5.00
2019-05-13T07:32:12.035Z,4.70
2019-05-13T07:34:43.982Z,4.60
2019-05-13T07:37:11.493Z,4.27
2019-05-13T07:39:41.850Z,4.40
2019-05-13T07:42:12.321Z,4.03
2019-05-13T07:44:41.678Z,3.77
2019-05-13T07:47:11.604Z,3.40
2019-05-13T07:52:31.936Z,3.60
2019-05-13T07:55:01.633Z,3.93
2019-05-13T07:57:31.943Z,3.43
2019-05-13T08:00:02.058Z,3.73
2019-05-13T08:02:31.927Z,3.57
2019-05-13T08:05:02.379Z,3.10
2019-05-13T08:07:31.624Z,2.60
2019-05-13T08:10:03.392Z,2.70
2019-05-13T08:12:31.889Z,2.53
2019-05-13T08:15:03.235Z,2.87
2019-05-13T08:17:32.750Z,2.87
2019-05-13T08:20:02.830Z,3.37
2019-05-13T08:22:32.059Z,2.90
2019-05-13T08:25:03.018Z,2.80
2019-05-13T08:27:34.989Z,2.47
2019-05-13T08:30:01.936Z,2.90
2019-05-13T08:32:31.444Z,1.97
2019-05-13T08:35:06.511Z,2.33
2019-05-13T08:37:32.097Z,2.70
2019-05-13T08:40:01.589Z,2.30
2019-05-13T08:42:32.239Z,2.07
2019-05-13T08:45:02.014Z,2.00
2019-05-13T08:47:31.461Z,2.53
2019-05-13T08:50:03.971Z,1.93
2019-05-13T08:52:31.387Z,2.73
2019-05-13T08:55:01.417Z,2.47
2019-05-13T08:57:31.581Z,2.60
2019-05-13T09:00:05.014Z,2.00
2019-05-13T09:02:31.402Z,2.70
2019-05-13T09:05:02.347Z,2.20
2019-05-13T09:07:32.076Z,2.03
2019-05-13T09:10:01.894Z,2.40
2019-05-13T09:12:35.640Z,2.23
2019-05-13T09:15:03.292Z,2.60
2019-05-13T09:17:31.921Z,2.20
2019-05-13T09:20:02.777Z,2.13
2019-05-13T09:22:31.899Z,2.60
2019-05-13T09:25:02.091Z,2.67
2019-05-13T09:27:31.899Z,2.57
2019-05-13T09:30:02.718Z,2.60
2019-05-13T09:32:31.797Z,2.40
2019-05-13T09:35:03.026Z,2.40
2019-05-13T09:37:31.757Z,2.33
2019-05-13T09:40:02.373Z,2.20
2019-05-13T09:42:47.572Z,2.50
2019-05-13T09:45:02.176Z,3.03
2019-05-13T09:47:32.164Z,2.47
2019-05-13T09:50:01.081Z,2.43
2019-05-13T09:52:31.877Z,2.50
2019-05-13T09:55:02.864Z,2.67
2019-05-13T09:57:32.139Z,2.17
2019-05-13T10:00:01.664Z,2.40
2019-05-13T10:02:32.283Z,2.63
2019-05-13T10:05:02.229Z,2.40
2019-05-13T10:07:31.853Z,2.30
2019-05-13T10:10:01.764Z,2.17
2019-05-13T10:12:32.006Z,2.20
2019-05-13T10:15:02.012Z,2.20
2019-05-13T10:17:31.900Z,2.37
2019-05-13T10:20:00.949Z,2.17
2019-05-13T10:22:31.817Z,2.03
2019-05-13T10:25:02.515Z,2.10
2019-05-13T10:27:32.395Z,2.17
2019-05-13T10:30:01.422Z,2.60
2019-05-13T10:32:32.508Z,2.37
2019-05-13T10:35:03.214Z,2.43
2019-05-13T10:37:32.279Z,2.27
2019-05-13T10:40:02.291Z,2.10
2019-05-13T10:42:31.263Z,2.10
2019-05-13T10:45:02.487Z,1.80
2019-05-13T10:47:30.351Z,2.40
2019-05-13T10:50:02.545Z,2.27
2019-05-13T10:52:31.562Z,2.20
2019-05-13T10:55:02.036Z,1.93
2019-05-13T10:57:31.936Z,3.70
2019-05-13T11:00:03.135Z,2.10
2019-05-13T11:02:32.743Z,3.07
2019-05-13T11:05:03.216Z,2.93
2019-05-13T11:07:32.138Z,2.47
2019-05-13T11:10:02.288Z,2.00
2019-05-13T11:12:33.499Z,3.77
2019-05-13T11:15:02.524Z,2.50
2019-05-13T11:17:33.170Z,2.97
2019-05-13T11:20:03.413Z,2.10
2019-05-13T11:22:32.750Z,2.27
2019-05-13T11:25:02.546Z,1.85
2019-05-13T11:27:32.402Z,1.65
2019-05-13T11:30:05.625Z,2.05
2019-05-13T11:32:31.815Z,1.90
2019-05-13T11:35:01.863Z,2.22
2019-05-13T11:37:32.051Z,1.72
2019-05-13T11:40:02.804Z,1.70
2019-05-13T11:42:32.744Z,1.75
2019-05-13T11:45:01.759Z,1.40
2019-05-13T11:47:32.248Z,1.42
2019-05-13T11:50:02.353Z,2.15
2019-05-13T11:52:31.575Z,1.60
2019-05-13T11:55:02.648Z,1.62
2019-05-13T11:57:31.582Z,1.83
2019-05-13T12:00:02.534Z,3.15
2019-05-13T12:02:32.715Z,2.17
2019-05-13T12:05:03.764Z,1.80
2019-05-13T12:07:32.966Z,1.67
2019-05-13T12:10:02.632Z,1.95
2019-05-13T12:12:34.447Z,1.60
2019-05-13T12:15:26.478Z,1.40
2019-05-13T12:17:34.040Z,1.70
2019-05-13T12:20:03.297Z,1.75
2019-05-13T12:22:32.397Z,2.30
2019-05-13T12:25:02.112Z,1.77
2019-05-13T12:27:31.745Z,1.80
2019-05-13T12:30:03.078Z,2.10
2019-05-13T12:32:32.284Z,1.60
2019-05-13T12:35:03.486Z,1.60
2019-05-13T12:37:33.522Z,1.80
2019-05-13T12:40:03.144Z,1.90
2019-05-13T12:42:33.765Z,1.72
2019-05-13T12:45:09.741Z,1.90
2019-05-13T12:47:32.674Z,2.00
2019-05-13T12:50:03.205Z,1.85
2019-05-13T12:52:32.498Z,2.10
2019-05-13T12:55:03.269Z,1.95
2019-05-13T12:57:32.471Z,2.17
2019-05-13T13:00:02.369Z,2.00
2019-05-13T13:02:32.584Z,1.95
2019-05-13T13:07:37.539Z,2.30
2019-05-13T13:10:02.248Z,1.87
2019-05-13T13:12:36.059Z,2.22
2019-05-13T13:15:20.396Z,1.70
2019-05-13T13:17:31.734Z,1.82
2019-05-13T13:20:06.211Z,2.45
2019-05-13T13:22:32.131Z,2.02
2019-05-13T13:25:05.013Z,2.30
2019-05-13T13:28:00.048Z,2.30
2019-05-13T13:30:04.390Z,2.10
2019-05-13T13:32:33.111Z,2.10
2019-05-13T13:35:03.739Z,1.95
2019-05-13T13:37:34.973Z,2.20
2019-05-13T13:40:03.374Z,2.12
2019-05-13T13:42:33.572Z,1.80
2019-05-13T13:45:06.048Z,2.02
2019-05-13T13:47:33.411Z,1.72
2019-05-13T13:50:02.319Z,2.20
2019-05-13T13:52:33.479Z,1.75
2019-05-13T13:55:08.235Z,2.67
2019-05-13T13:57:33.653Z,2.12
2019-05-13T14:00:26.365Z,1.92
2019-05-13T14:02:37.087Z,2.90
2019-05-13T14:05:05.579Z,3.20
2019-05-13T14:06:35.512Z,1.77
2019-05-13T14:07:38.486Z,2.02
2019-05-13T14:10:07.271Z,2.47
2019-05-13T14:12:36.013Z,2.55
2019-05-13T14:15:05.852Z,2.42
2019-05-13T14:17:34.441Z,2.35
2019-05-13T14:20:03.865Z,2.90
2019-05-13T14:22:32.736Z,3.30
2019-05-13T14:25:01.524Z,2.80
2019-05-13T14:27:31.447Z,2.25
2019-05-13T14:30:01.337Z,2.67
2019-05-13T14:32:32.082Z,2.58
2019-05-13T14:35:02.487Z,2.55
2019-05-13T14:37:31.811Z,2.65
2019-05-13T14:40:02.452Z,2.60
2019-05-13T14:42:32.240Z,2.10
2019-05-13T14:45:02.079Z,2.30
2019-05-13T14:47:32.125Z,2.50
2019-05-13T14:50:02.090Z,3.08
2019-05-13T14:52:32.278Z,2.62
2019-05-13T14:55:02.226Z,2.27
2019-05-13T14:57:32.278Z,2.87
2019-05-13T15:00:02.491Z,3.67
2019-05-13T15:02:32.104Z,2.30
2019-05-13T15:05:02.613Z,2.85
2019-05-13T15:07:32.174Z,2.35
2019-05-13T15:10:02.408Z,2.75
2019-05-13T15:12:32.300Z,3.35
2019-05-13T15:15:01.630Z,3.20
2019-05-13T15:17:32.442Z,3.20
2019-05-13T15:20:01.880Z,3.90
2019-05-13T15:22:31.943Z,3.15
2019-05-13T15:25:02.753Z,3.62
2019-05-13T15:27:31.695Z,3.33
2019-05-13T15:30:16.204Z,3.67
2019-05-13T15:32:32.536Z,2.67
2019-05-13T15:35:02.134Z,3.20
2019-05-13T15:37:32.122Z,3.25
2019-05-13T15:40:02.336Z,3.37
2019-05-13T15:42:31.917Z,4.28
2019-05-13T15:45:03.799Z,3.90
2019-05-13T15:47:34.400Z,4.25
2019-05-13T15:50:03.403Z,4.25
2019-05-13T15:52:37.661Z,4.78
2019-05-13T15:55:11.913Z,5.37
2019-05-13T15:57:39.336Z,4.97
2019-05-13T16:00:12.349Z,4.28
2019-05-13T16:02:42.168Z,4.25
2019-05-13T16:05:11.987Z,3.80
2019-05-13T16:07:41.783Z,4.58
2019-05-13T16:10:11.476Z,5.00
2019-05-13T16:12:40.261Z,5.15
2019-05-13T16:15:55.654Z,5.00
2019-05-13T16:17:44.090Z,5.75
2019-05-13T16:20:11.326Z,4.47
2019-05-13T16:22:41.975Z,5.35
2019-05-13T16:25:11.714Z,4.70
2019-05-13T16:27:41.640Z,4.70
2019-05-13T16:30:11.913Z,5.10
2019-05-13T16:32:42.428Z,4.40
2019-05-13T16:35:13.664Z,4.30
2019-05-13T16:37:42.458Z,5.10
2019-05-13T16:40:14.764Z,4.92
2019-05-13T16:42:43.550Z,5.10
2019-05-13T16:45:12.848Z,5.03
2019-05-13T16:47:55.789Z,4.93
2019-05-13T16:50:15.623Z,4.70
2019-05-13T16:52:44.576Z,4.30
2019-05-13T16:55:13.460Z,4.30
2019-05-13T16:57:45.115Z,4.60
2019-05-13T17:03:08.648Z,4.90
2019-05-13T17:05:37.361Z,4.80
2019-05-13T17:08:06.250Z,5.13
2019-05-13T17:10:35.513Z,4.70
2019-05-13T17:13:04.446Z,5.03
2019-05-13T17:15:33.301Z,4.87
2019-05-13T17:18:11.731Z,5.30
2019-05-13T17:20:32.537Z,5.33
2019-05-13T17:23:01.915Z,5.00
2019-05-13T17:25:30.852Z,5.23
2019-05-13T17:28:02.494Z,5.20
2019-05-13T17:30:32.048Z,4.80
2019-05-13T17:33:02.264Z,4.97
2019-05-13T17:35:31.562Z,5.60
2019-05-13T17:38:01.906Z,5.37
2019-05-13T17:40:31.514Z,4.50
2019-05-13T17:43:00.248Z,4.40
2019-05-13T17:45:31.159Z,4.57
2019-05-13T17:48:05.823Z,4.33
2019-05-13T17:50:31.491Z,4.53
2019-05-13T17:53:02.028Z,4.20
2019-05-13T17:55:30.889Z,4.50
2019-05-13T17:58:01.453Z,3.83
2019-05-13T18:00:32.281Z,4.40
2019-05-13T18:03:01.857Z,4.20
2019-05-13T18:05:31.468Z,4.80
2019-05-13T18:08:01.871Z,4.10
2019-05-13T18:10:31.842Z,4.30
2019-05-13T18:13:01.785Z,4.43
2019-05-13T18:15:31.356Z,4.30
2019-05-13T18:18:01.463Z,4.97
2019-05-13T18:20:32.207Z,4.47
2019-05-13T18:23:02.310Z,4.00
2019-05-13T18:25:32.415Z,4.40
2019-05-13T18:28:02.993Z,4.23
2019-05-13T18:30:32.100Z,4.40
2019-05-13T18:33:03.977Z,4.07
2019-05-13T18:35:32.817Z,3.70
2019-05-13T18:38:01.691Z,4.00
2019-05-13T18:40:47.183Z,3.60
2019-05-13T18:43:15.825Z,4.30
2019-05-13T18:45:46.174Z,4.40
2019-05-13T18:48:16.559Z,3.37
2019-05-13T18:50:45.129Z,3.60
2019-05-13T18:53:14.033Z,3.80
2019-05-13T18:55:43.094Z,3.73
2019-05-13T18:58:11.826Z,3.70
2019-05-13T19:00:41.596Z,3.90
2019-05-13T19:03:12.408Z,3.70
2019-05-13T19:05:42.241Z,3.33
2019-05-13T19:08:12.334Z,3.53
2019-05-13T19:10:52.286Z,3.60
2019-05-13T19:13:21.945Z,3.50
2019-05-13T19:15:51.684Z,3.67
2019-05-13T19:18:21.460Z,3.33
2019-05-13T19:20:51.721Z,3.67
2019-05-13T19:23:20.766Z,3.63
2019-05-13T19:25:52.919Z,4.30
2019-05-13T19:28:22.351Z,3.97
2019-05-13T19:30:51.787Z,4.33
2019-05-13T19:33:22.088Z,4.47
2019-05-13T19:35:51.846Z,4.60
2019-05-13T19:38:21.238Z,4.57
2019-05-13T19:40:49.904Z,4.30
2019-05-13T19:43:24.769Z,4.00
2019-05-13T19:45:53.650Z,4.80
2019-05-13T19:48:22.618Z,4.37
2019-05-13T19:50:52.142Z,4.90
2019-05-13T19:53:21.396Z,5.10
2019-05-13T19:55:51.937Z,4.87
2019-05-13T19:58:21.634Z,4.50
2019-05-13T20:00:53.019Z,4.43
2019-05-13T20:03:22.608Z,4.90
2019-05-13T20:05:51.481Z,4.70
2019-05-13T20:08:21.175Z,4.30
2019-05-13T20:10:51.480Z,4.17
2019-05-13T20:13:22.413Z,4.53
2019-05-13T20:15:51.831Z,4.40
2019-05-13T20:18:22.907Z,4.43
2019-05-13T20:20:51.921Z,4.53
2019-05-13T20:23:21.285Z,5.27
2019-05-13T20:25:53.741Z,4.80
2019-05-13T20:28:22.505Z,4.70
2019-05-13T20:30:51.269Z,4.83
2019-05-13T20:33:22.143Z,4.97
2019-05-13T20:35:50.761Z,5.47
2019-05-13T20:38:19.403Z,4.80
2019-05-13T20:40:51.935Z,5.27
2019-05-13T20:43:22.528Z,4.70
2019-05-13T20:45:51.929Z,5.10
2019-05-13T20:48:21.294Z,5.53
2019-05-13T20:50:51.943Z,5.27
2019-05-13T20:53:26.649Z,5.03
2019-05-13T20:55:55.453Z,4.50
2019-05-13T20:58:24.176Z,5.50
2019-05-13T21:00:53.232Z,4.47
2019-05-13T21:03:22.225Z,5.13
2019-05-13T21:05:52.027Z,4.90
2019-05-13T21:08:21.741Z,4.60
2019-05-13T21:10:51.705Z,4.30
2019-05-13T21:13:21.211Z,4.80
2019-05-13T21:15:52.022Z,5.30
2019-05-13T21:18:22.192Z,5.27
2019-05-13T21:20:53.439Z,5.43
2019-05-13T21:23:22.199Z,4.53
2019-05-13T21:25:51.146Z,5.27
2019-05-13T21:28:22.030Z,5.53
2019-05-13T21:30:51.447Z,5.57
2019-05-13T21:33:22.163Z,5.37
2019-05-13T21:35:51.166Z,5.43
2019-05-13T21:38:22.227Z,4.97
2019-05-13T21:40:52.279Z,5.33
2019-05-13T21:43:21.698Z,6.87
2019-05-13T21:45:52.289Z,5.07
2019-05-13T21:48:25.323Z,5.23
2019-05-13T21:50:54.252Z,6.13
2019-05-13T21:53:24.505Z,6.10
2019-05-13T21:55:53.683Z,5.90
2019-05-13T21:58:22.511Z,6.10
2019-05-13T22:00:52.485Z,5.70
2019-05-13T22:03:21.465Z,5.67
2019-05-13T22:05:51.574Z,5.40
2019-05-13T22:08:21.589Z,5.73
2019-05-13T22:10:52.494Z,5.50
2019-05-13T22:13:21.272Z,6.00
2019-05-13T22:15:52.183Z,5.70
2019-05-13T22:18:20.475Z,5.80
2019-05-13T22:20:51.227Z,5.50
2019-05-13T22:23:19.665Z,5.90
2019-05-13T22:25:48.379Z,5.13
2019-05-13T22:28:17.275Z,5.07
2019-05-13T22:30:45.917Z,5.27
2019-05-13T22:33:21.577Z,5.30
2019-05-13T22:35:52.275Z,5.40
2019-05-13T22:38:21.430Z,5.17
2019-05-13T22:40:52.118Z,5.10
2019-05-13T22:43:21.260Z,5.77
2019-05-13T22:45:51.146Z,5.67
2019-05-13T22:48:22.207Z,5.47
2019-05-13T22:50:52.194Z,5.23
2019-05-13T22:53:21.227Z,4.80
2019-05-13T22:55:51.988Z,5.10
2019-05-13T22:58:22.336Z,5.87
2019-05-13T23:00:51.729Z,5.10
2019-05-13T23:03:21.431Z,4.70
2019-05-13T23:05:52.194Z,5.40
2019-05-13T23:08:23.589Z,5.10
2019-05-13T23:10:52.639Z,4.87
2019-05-13T23:13:21.672Z,4.67
2019-05-13T23:15:51.627Z,5.00
2019-05-13T23:18:22.194Z,5.20
2019-05-13T23:20:51.568Z,4.63
2019-05-13T23:23:22.184Z,5.10
2019-05-13T23:25:51.343Z,4.90
2019-05-13T23:28:21.653Z,4.90
2019-05-13T23:30:51.226Z,4.53
2019-05-13T23:33:22.025Z,4.30
2019-05-13T23:35:51.577Z,4.70
2019-05-13T23:38:21.436Z,5.00
2019-05-13T23:40:51.584Z,4.60
2019-05-13T23:43:21.721Z,4.63
2019-05-13T23:45:51.113Z,3.73
2019-05-13T23:48:21.570Z,4.63
2019-05-13T23:50:52.204Z,4.73
2019-05-13T23:53:21.890Z,4.40
2019-05-13T23:55:51.986Z,4.43
2019-05-13T23:58:21.651Z,4.17
